Terminal Aerodrome Forecast
Issued by NWS Tuscon, AZ

Current Version | Previous Version | Text Only | Print | Product List | Glossary On
Versions: 1 2 3 4 5 6 7 8 9 10 11 12 13
823
FTUS45 KTWC 192335
TAFDUG
TAF
KDUG 192335Z 2000/2024 21008KT P6SM BKN060 OVC100
     FM200800 19008KT P6SM VCSH SCT030 BKN050
     FM201400 21011KT P6SM -RA OVC030
     FM201800 23018G28KT P6SM -RA OVC030=

USA.gov is the U.S. government's official web portal to all federal, state and local government web resources and services.